Bowie, TX (76230)

1:17 AM CDT on September 22, 2014 (GMT -0500)
KTXBOWIE6 | Change Station
CLOSE
Current Station
Personal Weather Station
Location: Bowie, TX
Elevation: 1096 ft
Nearby Weather Stations

Elev 1096 ft 33.55 °N, 97.84 °W | Updated 1 minute ago

Partly Cloudy
Partly Cloudy
73.6 °F
Feels Like 76 °F
N
1.0
Wind Variable Wind from ESE
Gusts 1.0 mph

Today
High -- | Low -- °F
--% Chance of Precip.
Yesterday
High -- | Low -- °F
Precip. -- in
7:19 AM 7:28 PM
Waning Crescent, 4% visible
Pressure 30.16 in
Visibility 10.0 miles
Clouds Mostly Cloudy 8500 ft
Heat Index 76 °F
Dew Point 62 °F
Humidity 68%
Rainfall 0.00 in
Snow Depth Not available.
UV 0 out of 12
Pollen 10.20 out of 12
Air Quality Not available.
Flu Activity Not available.
METAR K0F2 220555Z AUTO 05003KT 10SM BKN085 23/18 A3016 RMK AO2 T02270177 10305 20227 403390180

More Conditions Fewer Conditions

Pressure 30.16 in
Visibility 10.0 miles
Clouds Mostly Cloudy 8500 ft
Heat Index 76 °F
Dew Point 62 °F
Humidity 68%
Rainfall 0.00 in
Snow Depth Not available.
UV 0 out of 12
Pollen 10.20 out of 12
Air Quality Not available.
Flu Activity Not available.
METAR K0F2 220555Z AUTO 05003KT 10SM BKN085 23/18 A3016 RMK AO2 T02270177 10305 20227 403390180

More Conditions Fewer Conditions

Nowcast | as of 12:49 am CDT on September 22, 2014

A weak cold front will continue to move through the Interstate 20 corridor through 3 a.M with winds shifting northeast at 5 to 10 mph. Behind the cold front...a few showers will occur producing light amounts of rainfall below 1/10 of an inch. Elsewhere...periods of high cloudiness will continue with light winds. Temperatures behind the cold front will gradually fall into the 60s through the pre dawn hours. Ahead of the front...low to mid 70s will rule with near calm winds.

×

10-Day Weather Forecast

Almanac

Astronomy

Sep. 22, 2014 Rise Set
Actual Time 7:19 AM CDT 7:28 PM CDT
Civil Twilight 6:54 AM CDT 7:52 PM CDT
Nautical Twilight 6:25 AM CDT 8:21 PM CDT
Astronomical Twilight 5:56 AM CDT 8:51 PM CDT
Moon 5:52 AM CDT 6:34 PM CDT
Length of Visible Light 12h 58m
Length of Day
12h 08m
Tomorrow will be 2m 4s shorter.
Waning Crescent, 4% of the Moon is Illuminated
Today
Waning Crescent
Sep 24
New
Oct 1
First Quarter
Oct 8
Full
Oct 15
Last Quarter

Today's Extremes

State Highs State Lows

Community

WunderPhotos

Upload Photos

1,755,392 photos uploaded!

Nearby

Snow Depth

Station Depth Elevation
No new snow has been reported.

Earthquake Activity

City Distance Mag. Time & Date
No recent earthquake activity has been reported nearby.
Minimum magnitude displayed is 2.5.

Coastal Water Temperatures

Place Temperature
No Stations Reporting

Nearby Weather Stations